Tropical Cyclones
[Index]
Main Index Home Page Stock Weather Photos Extreme Storms Discussion Storm News and Storm Chasing Reports Tropical Cyclones / Hurricanes / Typhoons Weather Data and Links Wild Fires / Bushfires Weather Observation Techniques Weather Picture Catalogue Tornado Pictures and Reports Stock Video Footage and DVDs for sale
Season 1987-1988 Tropical Cyclone DOVI Track Map
Season 1987-1988 Summaries: [BoM-AU] [JTWC-AU] [JTWC-SIO] [JTWC-SPAC] [JTWC-SH]
<<- Previous TC | JTWC 1987-1988 Season | Next TC ->>

click for intensity scale information  Lat/long Grid: Show Hide

 Date Labels: Show Hide

Joint Typhoon Warning Centre Cyclone Data

Name: DOVI

08 Apr 1988 12:00 UTC to 16 Apr 1988 18:00 UTC

    date/time    lat    long     hPa   cat  kts
1988-04-08 12   14.9   170.8                  25          
1988-04-08 18   15.4   170.2                  25          
1988-04-09 00   16.0   169.8                  25          
1988-04-09 06   16.8   169.8                  30          
1988-04-09 12   17.3   170.0            1     40          
1988-04-09 18   17.7   170.2            1     45          
1988-04-10 00   17.9   170.4            1     50          
1988-04-10 06   18.1   170.5            1     50          
1988-04-10 12   18.0   170.7            2     55          
1988-04-10 18   17.9   170.8            2     55          
1988-04-11 00   17.7   170.7            2     55          
1988-04-11 06   17.7   170.6            2     60          
1988-04-11 12   17.8   170.5            2     60          
1988-04-11 18   18.0   170.6            2     65          
1988-04-12 00   18.1   170.7            2     65          
1988-04-12 06   18.2   170.8            2     70          
1988-04-12 12   18.6   171.1            2     65          
1988-04-12 18   19.1   171.4            2     65          
1988-04-13 00   19.6   171.6            2     65          
1988-04-13 06   20.0   171.8            2     60          
1988-04-13 12   20.5   172.0            2     60          
1988-04-13 18   21.0   172.2            2     60          
1988-04-14 00   21.5   172.4            2     60          
1988-04-14 06   22.0   172.6            2     60          
1988-04-14 12   22.7   172.8            2     60          
1988-04-14 18   23.6   173.1            2     55          
1988-04-15 00   24.7   173.5            1     50          
1988-04-15 06   25.8   173.8            1     50          
1988-04-15 12   26.9   174.1            1     50          
1988-04-15 18   27.0   174.5            1     45          
1988-04-16 00   28.1   174.9            1     45          
1988-04-16 06   29.2   175.3            1     40          
1988-04-16 12   30.3   175.7                  35          
1988-04-16 18   31.4   176.2                  30          
Winds are 1-min average.

Tropical cyclone tracks developed by Michael Bath using data from the Joint Typhoon Warning Centre Best Tracks and Google Maps.


[Australian Severe Weather index] [Copyright Notice] [Email Contacts] [Search This Site] [Privacy Policy]
Document: tropical_cyclone_dovi.htm Updated: 18 September 2016